createdAt,value
2019-05-05T01:21:04.564Z,59.17
2019-05-05T01:25:12.030Z,59.52
2019-05-05T01:29:17.782Z,56.27
2019-05-05T01:33:25.169Z,59.73
2019-05-05T01:37:32.496Z,59.23
2019-05-05T01:41:39.873Z,57.26
2019-05-05T01:45:45.765Z,56.66
2019-05-05T01:49:51.429Z,58.05
2019-05-05T01:53:57.094Z,57.36
2019-05-05T01:58:04.814Z,58.76
2019-05-05T02:02:10.497Z,59.18
2019-05-05T02:06:16.182Z,60.41
2019-05-05T02:10:22.334Z,56.04
2019-05-05T02:14:28.060Z,55.58
2019-05-05T02:18:34.561Z,57.80
2019-05-05T02:22:40.495Z,60.74
2019-05-05T02:26:46.235Z,57.13
2019-05-05T02:30:51.669Z,55.84
2019-05-05T02:34:59.376Z,56.23
2019-05-05T02:39:08.077Z,58.89
2019-05-05T02:43:15.160Z,56.60
2019-05-05T02:47:29.797Z,56.87
2019-05-05T02:51:36.977Z,55.77
2019-05-05T02:55:44.216Z,56.67
2019-05-05T02:59:55.182Z,55.49
2019-05-05T03:04:03.761Z,55.94
2019-05-05T03:08:10.005Z,59.06
2019-05-05T03:12:18.446Z,57.59
2019-05-05T03:16:28.054Z,57.47
2019-05-05T03:20:34.359Z,55.42
2019-05-05T03:24:40.682Z,55.71
2019-05-05T03:28:56.384Z,56.37
2019-05-05T03:33:05.503Z,58.34
2019-05-05T03:37:10.742Z,58.50
2019-05-05T03:41:23.856Z,56.91
2019-05-05T03:45:31.484Z,54.79
2019-05-05T03:49:37.694Z,56.32
2019-05-05T03:53:44.060Z,55.71
2019-05-05T03:57:50.014Z,58.33
2019-05-05T04:02:03.966Z,60.75
2019-05-05T04:06:09.980Z,55.01
2019-05-05T04:10:15.976Z,56.70
2019-05-05T04:14:21.721Z,57.19
2019-05-05T04:18:29.735Z,58.17
2019-05-05T04:22:35.392Z,57.36
2019-05-05T04:26:41.062Z,55.14
2019-05-05T04:30:46.730Z,55.60
2019-05-05T04:34:54.334Z,56.05
2019-05-05T04:38:59.765Z,55.40
2019-05-05T04:43:05.555Z,54.74
2019-05-05T04:47:18.363Z,58.47
2019-05-05T04:51:44.796Z,55.13
2019-05-05T04:55:39.808Z,54.48
2019-05-05T04:59:46.363Z,59.84
2019-05-05T05:03:56.117Z,60.67
2019-05-05T05:12:00.468Z,60.99
2019-05-05T05:16:06.395Z,59.64
2019-05-05T05:20:14.188Z,54.36
2019-05-05T05:24:19.881Z,55.90
2019-05-05T05:28:25.562Z,55.71
2019-05-05T05:32:31.219Z,58.56
2019-05-05T05:36:36.939Z,57.89
2019-05-05T05:40:56.063Z,60.89
2019-05-05T05:45:04.107Z,54.11
2019-05-05T05:49:13.961Z,53.84
2019-05-05T05:53:19.628Z,55.61
2019-05-05T05:57:25.303Z,53.96
2019-05-05T06:01:30.981Z,53.07
2019-05-05T06:05:36.649Z,52.88
2019-05-05T06:09:43.890Z,53.88
2019-05-05T06:13:49.613Z,52.86
2019-05-05T06:17:55.359Z,53.14
2019-05-05T06:22:01.097Z,51.21
2019-05-05T06:26:07.335Z,54.08
2019-05-05T06:30:14.003Z,51.46
2019-05-05T06:34:19.674Z,58.00
2019-05-05T06:38:25.344Z,53.19
2019-05-05T06:42:35.661Z,56.07
2019-05-05T06:46:57.924Z,55.65
2019-05-05T06:51:04.037Z,52.27
2019-05-05T06:55:10.080Z,59.34
2019-05-05T06:59:15.817Z,51.86
2019-05-05T07:03:21.496Z,54.33
2019-05-05T07:07:27.187Z,54.56
2019-05-05T07:11:34.277Z,55.42
2019-05-05T07:15:47.003Z,53.66
2019-05-05T07:19:54.344Z,54.20
2019-05-05T07:24:00.384Z,51.54
2019-05-05T07:28:06.066Z,52.55
2019-05-05T07:32:13.977Z,50.38
2019-05-05T07:36:38.617Z,52.64
2019-05-05T07:40:44.297Z,55.39
2019-05-05T07:44:49.985Z,54.10
2019-05-05T07:48:55.734Z,52.40
2019-05-05T07:53:12.379Z,52.61
2019-05-05T07:57:08.863Z,47.38
2019-05-05T08:01:14.547Z,48.92
2019-05-05T08:05:20.225Z,46.60
2019-05-05T08:09:25.907Z,46.04
2019-05-05T08:13:33.497Z,45.35
2019-05-05T08:17:56.568Z,46.55
2019-05-05T08:22:03.658Z,45.36
2019-05-05T08:26:13.727Z,51.60
2019-05-05T08:30:38.023Z,45.39
2019-05-05T08:34:57.373Z,47.50
2019-05-05T08:38:51.079Z,44.22
2019-05-05T08:42:56.855Z,44.21
2019-05-05T08:47:04.487Z,43.82
2019-05-05T08:51:09.912Z,43.29
2019-05-05T08:55:15.676Z,41.91
2019-05-05T08:59:21.396Z,43.14
2019-05-05T09:03:27.149Z,43.89
2019-05-05T09:07:33.674Z,49.63
2019-05-05T09:11:39.381Z,39.50
2019-05-05T09:15:45.113Z,41.16
2019-05-05T09:19:50.802Z,40.56
2019-05-05T09:24:01.687Z,37.75
2019-05-05T09:28:07.211Z,39.48
2019-05-05T09:32:13.870Z,40.18
2019-05-05T09:36:19.726Z,38.87
2019-05-05T09:40:39.092Z,39.82
2019-05-05T09:44:44.773Z,36.15
2019-05-05T09:48:50.463Z,43.61
2019-05-05T09:52:56.252Z,38.35
2019-05-05T09:57:04.258Z,35.09
2019-05-05T10:01:09.530Z,38.51
2019-05-05T10:05:15.511Z,39.08
2019-05-05T10:09:21.277Z,36.93
2019-05-05T10:13:26.963Z,39.42
2019-05-05T10:17:33.618Z,41.53
2019-05-05T10:21:39.404Z,38.72
2019-05-05T10:25:49.381Z,40.19
2019-05-05T10:29:55.133Z,42.82
2019-05-05T10:34:04.368Z,41.48
2019-05-05T10:38:09.825Z,43.42
2019-05-05T10:42:15.582Z,32.06
2019-05-05T10:46:21.277Z,36.86
2019-05-05T10:50:27.035Z,31.56
2019-05-05T10:54:41.630Z,32.09
2019-05-05T10:58:41.118Z,41.75
2019-05-05T11:02:46.813Z,39.97
2019-05-05T11:06:54.239Z,43.09
2019-05-05T11:11:00.099Z,37.45
2019-05-05T11:15:08.495Z,39.11
2019-05-05T11:19:14.238Z,43.71
2019-05-05T11:23:19.942Z,39.21
2019-05-05T11:27:25.643Z,36.50
2019-05-05T11:31:31.347Z,34.01
2019-05-05T11:35:54.586Z,35.56
2019-05-05T11:40:00.331Z,35.46
2019-05-05T11:44:06.096Z,40.17
2019-05-05T11:48:11.788Z,41.14
2019-05-05T11:52:17.546Z,34.06
2019-05-05T11:56:23.231Z,34.01
2019-05-05T12:00:28.966Z,38.57
2019-05-05T12:04:34.670Z,38.90
2019-05-05T12:08:43.022Z,33.73
2019-05-05T12:12:47.740Z,38.16
2019-05-05T12:16:53.459Z,41.00
2019-05-05T12:20:59.262Z,42.00
2019-05-05T12:25:08.422Z,42.95
2019-05-05T12:29:14.185Z,39.02
2019-05-05T12:33:19.910Z,36.26
2019-05-05T12:37:25.576Z,40.23
2019-05-05T12:41:31.262Z,37.87
2019-05-05T12:45:38.583Z,36.79
2019-05-05T12:49:44.349Z,34.11
2019-05-05T12:53:50.037Z,38.12
2019-05-05T12:57:56.002Z,35.03
2019-05-05T13:02:03.689Z,31.79
2019-05-05T13:06:09.211Z,29.63
2019-05-05T13:10:19.838Z,27.36
2019-05-05T13:14:25.709Z,29.11
2019-05-05T13:18:31.370Z,26.58
2019-05-05T13:22:54.901Z,29.51
2019-05-05T13:27:08.519Z,31.32
2019-05-05T13:31:10.757Z,30.43
2019-05-05T13:35:16.522Z,23.92
2019-05-05T13:39:24.565Z,29.08
2019-05-05T13:43:29.664Z,25.84
2019-05-05T13:47:43.685Z,26.61
2019-05-05T13:51:50.342Z,25.38
2019-05-05T13:56:08.894Z,30.05
2019-05-05T14:00:04.730Z,31.59
2019-05-05T14:04:10.588Z,30.90
2019-05-05T14:08:16.318Z,42.79
2019-05-05T14:12:23.821Z,34.06
2019-05-05T14:16:29.500Z,33.96
2019-05-05T14:20:35.261Z,32.55
2019-05-05T14:24:45.196Z,33.67
2019-05-05T14:28:50.941Z,34.37
2019-05-05T14:32:57.390Z,32.63
2019-05-05T14:37:20.570Z,31.53
2019-05-05T14:41:26.270Z,27.10
2019-05-05T14:45:33.892Z,28.77
2019-05-05T14:49:39.385Z,28.38
2019-05-05T14:53:45.080Z,27.40
2019-05-05T14:57:50.755Z,30.19
2019-05-05T15:01:56.471Z,28.92
2019-05-05T15:06:17.937Z,29.42
2019-05-05T15:10:40.648Z,31.51
2019-05-05T15:14:46.425Z,30.97
2019-05-05T15:18:52.146Z,31.83
2019-05-05T15:22:57.837Z,32.26
2019-05-05T15:27:03.538Z,35.45
2019-05-05T15:31:09.293Z,35.40
2019-05-05T15:35:15.114Z,34.36
2019-05-05T15:39:20.897Z,38.09
2019-05-05T15:43:26.579Z,38.19
2019-05-05T15:47:34.100Z,39.94
2019-05-05T15:51:40.746Z,28.88
2019-05-05T15:55:46.437Z,32.91
2019-05-05T15:59:54.143Z,33.55
2019-05-05T16:03:59.583Z,33.05
2019-05-05T16:08:05.341Z,41.15
2019-05-05T16:12:11.021Z,33.05
2019-05-05T16:16:18.352Z,32.76
2019-05-05T16:20:25.664Z,33.06
2019-05-05T16:24:36.604Z,33.31
2019-05-05T16:28:44.433Z,33.13
2019-05-05T16:32:49.767Z,33.61
2019-05-05T16:36:57.057Z,32.71
2019-05-05T16:41:02.782Z,33.64
2019-05-05T16:45:13.641Z,41.76
2019-05-05T16:49:20.833Z,39.54
2019-05-05T16:53:37.202Z,40.81
2019-05-05T16:57:43.717Z,32.63
2019-05-05T17:01:49.450Z,33.29
2019-05-05T17:05:57.890Z,35.35
2019-05-05T17:10:06.095Z,43.21
2019-05-05T17:14:15.514Z,39.63
2019-05-05T17:18:40.115Z,36.33
2019-05-05T17:22:47.438Z,34.66
2019-05-05T17:26:54.853Z,34.77
2019-05-05T17:31:00.791Z,36.06
2019-05-05T17:35:07.080Z,34.98
2019-05-05T17:39:12.765Z,33.71
2019-05-05T17:43:25.068Z,35.52
2019-05-05T17:47:30.206Z,43.96
2019-05-05T17:51:40.446Z,39.43
2019-05-05T17:55:46.210Z,36.58
2019-05-05T17:59:53.598Z,40.78
2019-05-05T18:04:00.311Z,35.79
2019-05-05T18:08:06.007Z,39.99
2019-05-05T18:12:25.395Z,36.15
2019-05-05T18:16:31.219Z,39.14
2019-05-05T18:20:36.931Z,37.29
2019-05-05T18:24:44.495Z,36.88
2019-05-05T18:28:49.990Z,36.52
2019-05-05T18:32:55.785Z,37.50
2019-05-05T18:37:03.610Z,40.54
2019-05-05T18:41:26.451Z,40.29
2019-05-05T18:45:32.142Z,38.37
2019-05-05T18:49:37.845Z,42.22
2019-05-05T18:53:43.732Z,38.48
2019-05-05T18:57:49.463Z,39.37
2019-05-05T19:01:59.737Z,46.07
2019-05-05T19:06:17.359Z,45.98
2019-05-05T19:10:24.247Z,42.70
2019-05-05T19:14:30.348Z,46.83
2019-05-05T19:18:36.046Z,47.12
2019-05-05T19:22:43.526Z,43.09
2019-05-05T19:26:49.392Z,47.12
2019-05-05T19:30:55.111Z,46.44
2019-05-05T19:35:00.790Z,43.55
2019-05-05T19:39:07.788Z,42.77
2019-05-05T19:43:14.079Z,46.66
2019-05-05T19:47:21.081Z,43.29
2019-05-05T19:51:26.770Z,45.25
2019-05-05T19:55:33.764Z,44.60
2019-05-05T19:59:40.409Z,43.29
2019-05-05T20:03:46.190Z,44.23
2019-05-05T20:07:51.867Z,42.07
2019-05-05T20:11:57.569Z,46.43
2019-05-05T20:16:11.364Z,48.82
2019-05-05T20:20:18.397Z,44.25
2019-05-05T20:24:24.143Z,43.21
2019-05-05T20:28:30.792Z,46.61
2019-05-05T20:32:38.253Z,45.65
2019-05-05T20:37:01.446Z,46.40
2019-05-05T20:41:17.086Z,45.18
2019-05-05T20:45:24.527Z,45.12
2019-05-05T20:49:30.298Z,46.74
2019-05-05T20:53:35.991Z,48.52
2019-05-05T20:57:41.651Z,46.85
2019-05-05T21:01:47.373Z,43.73
2019-05-05T21:05:53.853Z,43.90
2019-05-05T21:09:59.525Z,50.25
2019-05-05T21:14:05.304Z,44.52
2019-05-05T21:18:11.003Z,50.24
2019-05-05T21:22:27.062Z,47.10
2019-05-05T21:26:46.267Z,47.55
2019-05-05T21:30:53.815Z,46.81
2019-05-05T21:34:59.428Z,48.74
2019-05-05T21:39:08.800Z,46.24
2019-05-05T21:43:15.527Z,49.90
2019-05-05T21:47:21.213Z,45.63
2019-05-05T21:51:35.255Z,44.16
2019-05-05T21:55:57.497Z,47.37
2019-05-05T22:00:05.698Z,46.12
2019-05-05T22:04:14.995Z,47.24
2019-05-05T22:08:21.337Z,46.45
2019-05-05T22:12:27.035Z,47.78
2019-05-05T22:16:33.793Z,50.43
2019-05-05T22:20:45.444Z,49.79
2019-05-05T22:24:51.225Z,48.42
2019-05-05T22:28:56.925Z,45.71
2019-05-05T22:33:16.045Z,48.10
2019-05-05T22:37:23.577Z,48.00
2019-05-05T22:41:29.307Z,47.33
2019-05-05T22:45:35.017Z,45.34
2019-05-05T22:49:40.684Z,49.83
2019-05-05T22:53:46.402Z,47.78
2019-05-05T22:57:53.984Z,45.49
2019-05-05T23:01:59.657Z,44.17
2019-05-05T23:06:09.825Z,48.67
2019-05-05T23:10:15.648Z,45.51
2019-05-05T23:14:30.517Z,48.38
2019-05-05T23:18:36.293Z,46.47
2019-05-05T23:22:44.189Z,50.06
2019-05-05T23:26:51.633Z,51.19
2019-05-05T23:30:57.340Z,48.17
2019-05-05T23:35:03.022Z,50.41
2019-05-05T23:39:09.046Z,47.84
2019-05-05T23:43:14.731Z,48.51
2019-05-05T23:47:20.424Z,50.87
2019-05-05T23:51:26.104Z,49.25
2019-05-05T23:55:31.797Z,51.42
2019-05-05T23:59:37.479Z,47.17
